createdAt,value
2023-09-17T00:01:17.966Z,10.28
2023-09-17T00:03:44.818Z,10.23
2023-09-17T00:06:17.973Z,10.23
2023-09-17T00:08:51.031Z,10.23
2023-09-17T00:11:17.917Z,10.22
2023-09-17T00:13:51.253Z,10.23
2023-09-17T00:16:18.234Z,10.19
2023-09-17T00:18:50.939Z,10.14
2023-09-17T00:21:17.533Z,10.11
2023-09-17T00:23:51.052Z,10.08
2023-09-17T00:26:17.723Z,10.00
2023-09-17T00:28:51.017Z,9.97
2023-09-17T00:31:23.953Z,9.95
2023-09-17T00:33:56.956Z,9.93
2023-09-17T00:36:24.373Z,9.86
2023-09-17T00:38:57.941Z,9.85
2023-09-17T00:41:24.543Z,9.82
2023-09-17T00:43:51.335Z,9.80
2023-09-17T00:46:24.994Z,9.80
2023-09-17T00:48:58.006Z,9.76
2023-09-17T00:51:24.674Z,9.77
2023-09-17T00:53:57.956Z,9.77
2023-09-17T00:56:26.650Z,9.69
2023-09-17T00:58:59.955Z,9.70
2023-09-17T01:01:33.019Z,9.70
2023-09-17T01:04:08.046Z,9.65
2023-09-17T01:06:43.976Z,9.65
2023-09-17T01:09:24.956Z,9.67
2023-09-17T01:11:57.994Z,9.67
2023-09-17T01:14:24.702Z,9.67
2023-09-17T01:16:58.993Z,9.70
2023-09-17T01:19:40.001Z,9.71
2023-09-17T01:22:43.000Z,9.71
2023-09-17T01:25:43.007Z,9.29
2023-09-17T01:28:17.113Z,9.42
2023-09-17T01:30:49.938Z,9.53
2023-09-17T01:33:16.555Z,9.62
2023-09-17T01:35:57.954Z,9.66
2023-09-17T01:38:33.571Z,9.74
2023-09-17T01:41:11.969Z,9.80
2023-09-17T01:43:39.695Z,9.85
2023-09-17T01:46:20.091Z,9.90
2023-09-17T01:48:47.273Z,9.92
2023-09-17T01:51:20.982Z,9.94
2023-09-17T01:53:54.980Z,9.92
2023-09-17T01:56:22.463Z,9.95
2023-09-17T01:58:55.988Z,9.98
2023-09-17T02:01:23.206Z,9.97
2023-09-17T02:03:56.998Z,9.97
2023-09-17T02:06:29.969Z,9.89
2023-09-17T02:09:09.461Z,9.85
2023-09-17T02:11:42.987Z,9.47
2023-09-17T02:14:09.554Z,9.19
2023-09-17T02:16:58.981Z,9.26
2023-09-17T02:19:32.409Z,8.99
2023-09-17T02:22:05.966Z,8.93
2023-09-17T02:24:32.532Z,9.07
2023-09-17T02:26:59.117Z,8.97
2023-09-17T02:29:31.944Z,8.84
2023-09-17T02:32:05.030Z,8.98
2023-09-17T02:34:37.973Z,9.00
2023-09-17T02:37:04.590Z,8.83
2023-09-17T02:39:38.000Z,8.97
2023-09-17T02:42:04.865Z,8.96
2023-09-17T02:44:31.537Z,8.76
2023-09-17T02:47:05.007Z,8.82
2023-09-17T02:49:38.054Z,8.86
2023-09-17T02:52:12.973Z,8.57
2023-09-17T02:54:39.579Z,8.66
2023-09-17T02:57:12.994Z,8.75
2023-09-17T02:59:39.570Z,8.46
2023-09-17T03:02:13.026Z,8.51
2023-09-17T03:04:39.748Z,8.46
2023-09-17T03:07:12.972Z,8.34
2023-09-17T03:09:46.019Z,8.40
2023-09-17T03:12:12.705Z,8.32
2023-09-17T03:14:40.510Z,8.13
2023-09-17T03:17:14.055Z,8.24
2023-09-17T03:19:40.842Z,8.02
2023-09-17T03:22:13.978Z,8.00
2023-09-17T03:24:47.782Z,8.01
2023-09-17T03:27:34.970Z,7.70
2023-09-17T03:30:04.876Z,7.86
2023-09-17T03:32:46.260Z,7.69
2023-09-17T03:35:20.553Z,7.71
2023-09-17T03:37:53.998Z,7.59
2023-09-17T03:40:27.009Z,7.37
2023-09-17T03:42:53.758Z,7.45
2023-09-17T03:45:26.972Z,7.23
2023-09-17T03:47:53.997Z,7.39
2023-09-17T03:50:21.719Z,7.33
2023-09-17T03:52:59.972Z,7.26
2023-09-17T03:55:26.776Z,7.28
2023-09-17T03:58:01.969Z,7.14
2023-09-17T04:00:34.984Z,7.34
2023-09-17T04:03:01.720Z,7.03
2023-09-17T04:05:30.039Z,7.15
2023-09-17T04:08:02.982Z,7.21
2023-09-17T04:10:29.685Z,7.14
2023-09-17T04:13:02.966Z,7.28
2023-09-17T04:15:29.569Z,7.10
2023-09-17T04:17:56.347Z,7.19
2023-09-17T04:20:30.977Z,7.11
2023-09-17T04:22:57.467Z,6.95
2023-09-17T04:25:24.859Z,7.01
2023-09-17T04:27:58.992Z,6.93
2023-09-17T04:30:25.581Z,7.10
2023-09-17T04:33:01.973Z,7.07
2023-09-17T04:35:35.322Z,7.07
2023-09-17T04:38:08.979Z,7.11
2023-09-17T04:40:35.763Z,6.84
2023-09-17T04:43:12.001Z,6.96
2023-09-17T04:45:39.844Z,6.86
2023-09-17T04:48:07.710Z,6.94
2023-09-17T04:50:41.997Z,6.99
2023-09-17T04:53:08.734Z,6.82
2023-09-17T04:55:42.027Z,6.97
2023-09-17T04:58:08.615Z,6.91
2023-09-17T05:00:35.619Z,6.98
2023-09-17T05:03:09.025Z,7.02
2023-09-17T05:05:41.966Z,6.84
2023-09-17T05:08:15.067Z,6.96
2023-09-17T05:10:54.997Z,6.88
2023-09-17T05:13:21.718Z,6.91
2023-09-17T05:15:55.995Z,6.91
2023-09-17T05:18:22.621Z,6.77
2023-09-17T05:20:55.980Z,6.99
2023-09-17T05:23:23.227Z,6.92
2023-09-17T05:25:57.074Z,6.97
2023-09-17T05:28:24.986Z,7.02
2023-09-17T05:30:54.118Z,6.96
2023-09-17T05:33:27.034Z,7.12
2023-09-17T05:35:57.701Z,7.14
2023-09-17T05:38:33.005Z,7.20
2023-09-17T05:40:59.932Z,7.34
2023-09-17T05:43:26.658Z,7.24
2023-09-17T05:46:04.030Z,7.41
2023-09-17T05:48:30.646Z,7.39
2023-09-17T05:51:03.985Z,7.48
2023-09-17T05:53:39.005Z,7.55
2023-09-17T05:56:15.004Z,7.47
2023-09-17T05:58:42.219Z,7.59
2023-09-17T06:01:08.911Z,7.46
2023-09-17T06:03:43.054Z,7.56
2023-09-17T06:06:16.180Z,7.65
2023-09-17T06:08:51.929Z,7.56
2023-09-17T06:11:32.039Z,7.76
2023-09-17T06:13:58.656Z,7.65
2023-09-17T06:16:25.251Z,7.82
2023-09-17T06:19:00.022Z,7.83
2023-09-17T06:21:26.629Z,7.81
2023-09-17T06:23:54.376Z,7.92
2023-09-17T06:26:27.014Z,7.87
2023-09-17T06:28:53.652Z,8.03
2023-09-17T06:31:27.086Z,7.93
2023-09-17T06:33:54.849Z,8.03
2023-09-17T06:36:30.017Z,8.05
2023-09-17T06:38:56.628Z,8.00
2023-09-17T06:41:23.207Z,8.15
2023-09-17T06:43:56.021Z,8.06
2023-09-17T06:46:32.098Z,8.15
2023-09-17T06:49:05.049Z,8.26
2023-09-17T06:51:31.619Z,8.30
2023-09-17T06:53:58.205Z,8.45
2023-09-17T06:56:31.991Z,8.30
2023-09-17T06:58:58.614Z,8.44
2023-09-17T07:01:32.084Z,8.52
2023-09-17T07:04:05.032Z,8.61
2023-09-17T07:06:31.738Z,8.73
2023-09-17T07:09:12.007Z,8.74
2023-09-17T07:11:45.004Z,8.83
2023-09-17T07:14:11.768Z,8.81
2023-09-17T07:16:45.041Z,8.94
2023-09-17T07:19:11.654Z,8.99
2023-09-17T07:21:38.236Z,9.06
2023-09-17T07:24:12.008Z,9.12
2023-09-17T07:26:38.631Z,9.14
2023-09-17T07:29:11.998Z,9.17
2023-09-17T07:31:38.708Z,9.18
2023-09-17T07:34:05.378Z,9.16
2023-09-17T07:36:38.058Z,9.25
2023-09-17T07:39:05.108Z,9.25
2023-09-17T07:41:31.706Z,9.37
2023-09-17T07:44:05.065Z,9.40
2023-09-17T07:46:31.912Z,9.43
2023-09-17T07:48:58.708Z,9.49
2023-09-17T07:51:32.017Z,9.35
2023-09-17T07:54:05.001Z,9.54
2023-09-17T07:56:32.186Z,9.56
2023-09-17T07:59:05.063Z,9.61
2023-09-17T08:01:31.792Z,9.52
2023-09-17T08:03:58.864Z,9.52
2023-09-17T08:06:33.066Z,9.65
2023-09-17T08:09:07.444Z,9.50
2023-09-17T08:11:40.017Z,9.57
2023-09-17T08:14:06.582Z,9.63
2023-09-17T08:16:40.040Z,9.80
2023-09-17T08:19:13.033Z,9.91
2023-09-17T08:21:39.618Z,9.91
2023-09-17T08:24:06.579Z,10.00
2023-09-17T08:26:40.012Z,9.95
2023-09-17T08:29:06.782Z,10.08
2023-09-17T08:31:40.001Z,10.09
2023-09-17T08:34:13.012Z,10.20
2023-09-17T08:36:39.685Z,10.28
2023-09-17T08:39:16.028Z,10.22
2023-09-17T08:41:44.085Z,10.35
2023-09-17T08:44:19.023Z,10.28
2023-09-17T08:46:47.199Z,10.35
2023-09-17T08:49:20.035Z,10.39
2023-09-17T08:51:49.023Z,10.31
2023-09-17T08:54:29.018Z,10.45
2023-09-17T08:57:07.028Z,10.35
2023-09-17T08:59:46.016Z,10.51
2023-09-17T09:02:26.009Z,10.36
2023-09-17T09:05:00.049Z,10.41
2023-09-17T09:07:43.085Z,10.36
2023-09-17T09:10:24.017Z,10.30
2023-09-17T09:12:51.699Z,10.39
2023-09-17T09:15:25.013Z,10.38
2023-09-17T09:17:51.610Z,10.60
2023-09-17T09:20:26.040Z,10.66
2023-09-17T09:22:52.687Z,10.88
2023-09-17T09:25:29.017Z,11.04
2023-09-17T09:28:12.018Z,11.05
2023-09-17T09:30:45.018Z,11.08
2023-09-17T09:33:20.094Z,11.02
2023-09-17T09:35:46.773Z,11.07
2023-09-17T09:38:20.035Z,11.14
2023-09-17T09:40:46.785Z,11.07
2023-09-17T09:43:37.027Z,11.14
2023-09-17T09:46:12.067Z,11.15
2023-09-17T09:48:39.873Z,11.05
2023-09-17T09:51:14.022Z,11.27
2023-09-17T09:53:40.653Z,11.37
2023-09-17T09:56:07.900Z,11.27
2023-09-17T09:58:41.050Z,11.29
2023-09-17T10:01:15.101Z,11.36
2023-09-17T10:03:41.788Z,11.30
2023-09-17T10:06:15.054Z,11.38
2023-09-17T10:08:48.117Z,11.42
2023-09-17T10:11:30.063Z,11.41
2023-09-17T10:14:07.040Z,11.48
2023-09-17T10:16:42.074Z,11.41
2023-09-17T10:19:09.485Z,11.46
2023-09-17T10:21:40.130Z,11.60
2023-09-17T10:24:16.017Z,11.53
2023-09-17T10:26:44.110Z,11.60
2023-09-17T10:29:22.034Z,11.60
2023-09-17T10:31:49.941Z,11.49
2023-09-17T10:34:24.029Z,11.65
2023-09-17T10:36:51.658Z,11.70
2023-09-17T10:39:27.047Z,11.65
2023-09-17T10:41:56.217Z,11.79
2023-09-17T10:44:31.075Z,11.75
2023-09-17T10:47:07.198Z,11.85
2023-09-17T10:49:37.608Z,11.95
2023-09-17T10:52:06.334Z,11.90
2023-09-17T10:54:40.059Z,11.81
2023-09-17T10:57:21.437Z,11.95
2023-09-17T10:59:56.046Z,11.87
2023-09-17T11:02:24.836Z,11.93
2023-09-17T11:04:59.070Z,12.02
2023-09-17T11:07:33.206Z,12.03
2023-09-17T11:10:25.617Z,12.06
2023-09-17T11:12:58.520Z,12.19
2023-09-17T11:15:32.036Z,12.14
2023-09-17T11:18:09.194Z,12.21
2023-09-17T11:20:37.428Z,12.37
2023-09-17T11:23:11.041Z,12.24
2023-09-17T11:25:40.616Z,12.33
2023-09-17T11:28:22.035Z,12.40
2023-09-17T11:31:00.365Z,12.10
2023-09-17T11:33:37.078Z,12.26
2023-09-17T11:36:11.038Z,12.45
2023-09-17T11:38:44.050Z,12.52
2023-09-17T11:41:19.073Z,12.61
2023-09-17T11:43:51.835Z,12.59
2023-09-17T11:46:26.139Z,12.53
2023-09-17T11:48:59.064Z,12.66
2023-09-17T11:51:28.282Z,12.51
2023-09-17T11:54:08.031Z,12.75
2023-09-17T11:56:46.126Z,12.76
2023-09-17T11:59:23.080Z,12.58
2023-09-17T12:02:00.373Z,12.84
2023-09-17T12:04:36.157Z,12.73
2023-09-17T12:07:09.240Z,12.79
2023-09-17T12:09:55.119Z,12.77
2023-09-17T12:12:22.160Z,12.54
2023-09-17T12:14:50.244Z,12.78
2023-09-17T12:17:27.110Z,12.76
2023-09-17T12:20:41.144Z,12.92
2023-09-17T12:23:30.085Z,12.94
2023-09-17T12:25:56.757Z,12.84
2023-09-17T12:28:35.104Z,13.00
2023-09-17T12:31:03.214Z,12.89
2023-09-17T12:33:36.051Z,12.97
2023-09-17T12:36:03.860Z,13.13
2023-09-17T12:38:32.536Z,13.00
2023-09-17T12:41:06.131Z,13.10
2023-09-17T12:43:32.792Z,13.08
2023-09-17T12:45:59.699Z,13.01
2023-09-17T12:48:34.057Z,13.15
2023-09-17T12:51:07.078Z,13.27
2023-09-17T12:53:33.674Z,13.32
2023-09-17T12:56:08.159Z,13.39
2023-09-17T12:58:34.644Z,13.30
2023-09-17T13:01:16.079Z,13.37
2023-09-17T13:04:05.224Z,13.48
2023-09-17T13:06:43.046Z,13.40
2023-09-17T13:09:17.077Z,13.47
2023-09-17T13:11:43.671Z,13.06
2023-09-17T13:14:17.074Z,13.25
2023-09-17T13:16:50.131Z,13.42
2023-09-17T13:19:18.080Z,13.28
2023-09-17T13:21:52.075Z,13.48
2023-09-17T13:24:19.522Z,13.43
2023-09-17T13:26:53.056Z,13.53
2023-09-17T13:29:26.075Z,13.64
2023-09-17T13:31:54.691Z,13.58
2023-09-17T13:34:28.091Z,13.75
2023-09-17T13:36:57.722Z,13.82
2023-09-17T13:39:32.186Z,13.78
2023-09-17T13:41:58.807Z,13.93
2023-09-17T13:44:25.555Z,13.74
2023-09-17T13:47:00.115Z,13.81
2023-09-17T13:49:27.064Z,13.70
2023-09-17T13:52:01.051Z,13.76
2023-09-17T13:54:27.639Z,13.99
2023-09-17T13:57:01.076Z,13.68
2023-09-17T13:59:27.650Z,13.86
2023-09-17T14:02:01.108Z,14.02
2023-09-17T14:04:27.763Z,13.92
2023-09-17T14:06:56.625Z,14.04
2023-09-17T14:09:30.063Z,14.06
2023-09-17T14:12:04.275Z,14.06
2023-09-17T14:14:37.085Z,14.06
2023-09-17T14:17:06.009Z,13.87
2023-09-17T14:19:39.120Z,14.00
2023-09-17T14:22:06.209Z,14.03
2023-09-17T14:24:39.068Z,13.84
2023-09-17T14:27:05.698Z,14.11
2023-09-17T14:29:39.098Z,14.05
2023-09-17T14:32:05.944Z,14.03
2023-09-17T14:34:39.102Z,14.26
2023-09-17T14:37:05.865Z,14.15
2023-09-17T14:39:39.128Z,14.37
2023-09-17T14:42:05.753Z,14.44
2023-09-17T14:44:33.376Z,14.47
2023-09-17T14:47:07.201Z,14.75
2023-09-17T14:49:33.963Z,14.64
2023-09-17T14:52:07.112Z,14.77
2023-09-17T14:54:34.268Z,15.23
2023-09-17T14:57:07.104Z,15.19
2023-09-17T14:59:33.719Z,15.37
2023-09-17T15:02:01.737Z,15.85
2023-09-17T15:04:39.277Z,15.72
2023-09-17T15:07:06.095Z,15.68
2023-09-17T15:09:46.072Z,15.94
2023-09-17T15:12:14.015Z,15.76
2023-09-17T15:14:47.077Z,15.17
2023-09-17T15:17:13.744Z,15.52
2023-09-17T15:19:47.171Z,15.95
2023-09-17T15:22:13.777Z,15.56
2023-09-17T15:24:40.442Z,15.46
2023-09-17T15:27:13.108Z,15.74
2023-09-17T15:29:39.711Z,15.23
2023-09-17T15:32:06.523Z,15.33
2023-09-17T15:34:40.211Z,15.16
2023-09-17T15:37:07.094Z,14.90
2023-09-17T15:39:40.080Z,15.13
2023-09-17T15:42:13.115Z,15.00
2023-09-17T15:44:46.100Z,14.83
2023-09-17T15:47:12.730Z,15.04
2023-09-17T15:49:46.105Z,15.12
2023-09-17T15:52:13.041Z,14.57
2023-09-17T15:54:46.080Z,14.57
2023-09-17T15:57:19.099Z,14.60
2023-09-17T15:59:52.114Z,13.88
2023-09-17T16:02:21.124Z,13.90
2023-09-17T16:04:48.744Z,13.78
2023-09-17T16:07:22.084Z,13.55
2023-09-17T16:09:55.416Z,13.91
2023-09-17T16:12:29.102Z,13.72
2023-09-17T16:14:55.634Z,13.41
2023-09-17T16:17:29.176Z,13.58
2023-09-17T16:19:57.162Z,13.05
2023-09-17T16:22:24.566Z,12.92
2023-09-17T16:24:58.091Z,13.02
2023-09-17T16:27:31.097Z,12.58
2023-09-17T16:29:59.561Z,12.77
2023-09-17T16:32:33.233Z,12.71
2023-09-17T16:35:00.075Z,12.11
2023-09-17T16:37:26.792Z,12.27
2023-09-17T16:40:01.089Z,11.85
2023-09-17T16:42:27.730Z,11.30
2023-09-17T16:45:03.998Z,11.30
2023-09-17T16:47:39.148Z,10.58
2023-09-17T16:50:06.045Z,10.67
2023-09-17T16:52:39.099Z,10.30
2023-09-17T16:55:05.881Z,10.09
2023-09-17T16:57:39.114Z,10.06
2023-09-17T17:00:07.024Z,9.93
2023-09-17T17:02:40.198Z,10.15
2023-09-17T17:05:15.154Z,9.45
2023-09-17T17:07:48.122Z,9.34
2023-09-17T17:10:21.314Z,9.12
2023-09-17T17:12:54.099Z,9.05
2023-09-17T17:15:20.820Z,9.21
2023-09-17T17:17:47.416Z,9.13
2023-09-17T17:20:21.180Z,9.34
2023-09-17T17:22:49.571Z,9.19
2023-09-17T17:25:23.111Z,9.27
2023-09-17T17:27:56.109Z,9.28
2023-09-17T17:30:29.107Z,9.08
2023-09-17T17:32:56.128Z,9.12
2023-09-17T17:35:29.128Z,8.64
2023-09-17T17:38:02.211Z,8.69
2023-09-17T17:40:37.106Z,8.61
2023-09-17T17:43:03.722Z,8.65
2023-09-17T17:45:38.149Z,8.70
2023-09-17T17:48:05.711Z,8.47
2023-09-17T17:50:32.420Z,8.61
2023-09-17T17:53:05.155Z,8.34
2023-09-17T17:55:31.785Z,8.37
2023-09-17T17:58:05.122Z,8.27
2023-09-17T18:00:32.073Z,8.05
2023-09-17T18:03:05.172Z,8.14
2023-09-17T18:05:34.245Z,7.95
2023-09-17T18:08:07.131Z,8.00
2023-09-17T18:10:40.838Z,7.70
2023-09-17T18:13:14.585Z,7.74
2023-09-17T18:15:42.307Z,7.74
2023-09-17T18:18:16.162Z,7.52
2023-09-17T18:20:49.131Z,7.47
2023-09-17T18:23:15.922Z,6.89
2023-09-17T18:25:49.149Z,6.97
2023-09-17T18:28:15.770Z,7.13
2023-09-17T18:30:49.477Z,7.27
2023-09-17T18:33:16.076Z,7.31
2023-09-17T18:35:42.688Z,6.75
2023-09-17T18:38:16.188Z,6.52
2023-09-17T18:40:42.831Z,6.69
2023-09-17T18:43:16.114Z,6.24
2023-09-17T18:45:44.152Z,6.33
2023-09-17T18:48:17.113Z,6.27
2023-09-17T18:50:44.542Z,6.15
2023-09-17T18:53:18.207Z,6.19
2023-09-17T18:55:44.842Z,6.00
2023-09-17T18:58:11.882Z,6.05
2023-09-17T19:00:45.311Z,6.22
2023-09-17T19:03:12.012Z,5.95
2023-09-17T19:05:45.106Z,5.81
2023-09-17T19:08:11.737Z,5.56
2023-09-17T19:10:52.137Z,5.77
2023-09-17T19:13:25.132Z,5.78
2023-09-17T19:15:58.168Z,5.75
2023-09-17T19:18:24.812Z,5.87
2023-09-17T19:21:13.185Z,5.69
2023-09-17T19:23:40.953Z,5.78
2023-09-17T19:26:15.167Z,5.37
2023-09-17T19:28:49.141Z,5.28
2023-09-17T19:31:22.167Z,5.19
2023-09-17T19:33:48.934Z,4.93
2023-09-17T19:36:15.571Z,5.21
2023-09-17T19:38:49.152Z,5.44
2023-09-17T19:41:22.148Z,5.52
2023-09-17T19:43:55.292Z,5.62
2023-09-17T19:46:29.172Z,5.36
2023-09-17T19:48:55.938Z,5.13
2023-09-17T19:51:29.143Z,4.91
2023-09-17T19:53:55.782Z,4.59
2023-09-17T19:56:22.428Z,4.84
2023-09-17T19:58:55.323Z,4.45
2023-09-17T20:01:22.339Z,4.59
2023-09-17T20:03:55.166Z,4.59
2023-09-17T20:06:39.589Z,4.70
2023-09-17T20:09:22.298Z,4.76
2023-09-17T20:12:03.138Z,4.51
2023-09-17T20:14:36.125Z,4.62
2023-09-17T20:17:02.760Z,4.30
2023-09-17T20:19:36.130Z,4.34
2023-09-17T20:22:09.145Z,4.37
2023-09-17T20:24:35.772Z,4.16
2023-09-17T20:27:09.318Z,4.35
2023-09-17T20:29:35.985Z,4.53
2023-09-17T20:32:02.655Z,4.64
2023-09-17T20:34:36.150Z,4.45
2023-09-17T20:37:03.816Z,4.54
2023-09-17T20:39:37.159Z,4.41
2023-09-17T20:42:11.133Z,4.02
2023-09-17T20:44:44.186Z,4.14
2023-09-17T20:47:10.999Z,4.03
2023-09-17T20:49:37.650Z,4.05
2023-09-17T20:52:11.146Z,4.01
2023-09-17T20:54:37.733Z,3.99
2023-09-17T20:57:11.175Z,4.16
2023-09-17T20:59:37.845Z,4.02
2023-09-17T21:02:04.619Z,4.19
2023-09-17T21:04:38.169Z,3.84
2023-09-17T21:07:11.180Z,3.75
2023-09-17T21:09:44.557Z,3.79
2023-09-17T21:12:24.189Z,3.68
2023-09-17T21:14:51.520Z,3.80
2023-09-17T21:17:18.242Z,3.23
2023-09-17T21:19:51.166Z,3.27
2023-09-17T21:22:24.130Z,3.07
2023-09-17T21:24:57.144Z,3.04
2023-09-17T21:27:23.748Z,3.13
2023-09-17T21:29:57.137Z,2.93
2023-09-17T21:32:23.946Z,3.17
2023-09-17T21:34:57.151Z,3.40
2023-09-17T21:37:23.762Z,3.67
2023-09-17T21:39:57.126Z,3.78
2023-09-17T21:42:23.736Z,3.68
2023-09-17T21:44:57.159Z,3.66
2023-09-17T21:47:23.863Z,3.03
2023-09-17T21:49:50.574Z,3.14
2023-09-17T21:52:24.147Z,3.00
2023-09-17T21:54:50.813Z,2.97
2023-09-17T21:57:26.277Z,2.99
2023-09-17T21:59:53.574Z,2.85
2023-09-17T22:02:20.596Z,3.11
2023-09-17T22:04:54.167Z,3.12
2023-09-17T22:07:27.171Z,3.11
2023-09-17T22:10:00.221Z,3.05
2023-09-17T22:12:40.142Z,2.91
2023-09-17T22:15:07.891Z,3.08
2023-09-17T22:17:34.744Z,2.80
2023-09-17T22:20:26.157Z,2.95
2023-09-17T22:22:56.004Z,3.17
2023-09-17T22:25:30.134Z,3.00
2023-09-17T22:27:56.765Z,2.97
2023-09-17T22:30:32.155Z,2.85
2023-09-17T22:33:05.219Z,2.98
2023-09-17T22:35:38.156Z,2.74
2023-09-17T22:38:04.753Z,3.04
2023-09-17T22:40:38.149Z,2.89
2023-09-17T22:43:04.706Z,2.72
2023-09-17T22:45:38.173Z,2.84
2023-09-17T22:48:12.217Z,2.85
2023-09-17T22:50:45.135Z,3.01
2023-09-17T22:53:19.208Z,2.60
2023-09-17T22:55:53.182Z,2.57
2023-09-17T22:58:19.730Z,2.69
2023-09-17T23:00:53.131Z,2.55
2023-09-17T23:03:19.780Z,2.67
2023-09-17T23:05:53.185Z,2.27
2023-09-17T23:08:19.846Z,2.40
2023-09-17T23:11:00.160Z,2.38
2023-09-17T23:13:27.444Z,2.05
2023-09-17T23:16:00.224Z,2.28
2023-09-17T23:18:31.046Z,2.06
2023-09-17T23:20:58.476Z,2.08
2023-09-17T23:23:32.272Z,2.15
2023-09-17T23:26:05.272Z,2.35
2023-09-17T23:28:38.010Z,2.48
2023-09-17T23:31:04.916Z,1.94
2023-09-17T23:33:39.161Z,2.01
2023-09-17T23:36:05.959Z,2.00
2023-09-17T23:38:39.138Z,1.88
2023-09-17T23:41:06.525Z,2.12
2023-09-17T23:43:40.128Z,1.95
2023-09-17T23:46:06.749Z,2.16
2023-09-17T23:48:40.141Z,2.03
2023-09-17T23:51:08.007Z,1.84
2023-09-17T23:53:41.147Z,2.01
2023-09-17T23:56:07.792Z,1.94
2023-09-17T23:58:41.143Z,2.19
